Time;durP1;ratioP1;P1;durP2;ratioP2;P2;SDS_P1;SDS_P2;PMS_P1;PMS_P2;Temp;Humidity;BMP_temperature;BMP_pressure;BME280_temperature;BME280_humidity;BME280_pressure;Samples;Min_cycle;Max_cycle;Signal;HPM_P1;HPM_P2
2023/01/11 00:01:12;;;;;;;1.20;1.10;;;;;;;7.65;73.12;98914.72;5114783;28;20193;-56
2023/01/11 00:03:39;;;;;;;1.10;1.10;;;;;;;7.64;72.66;98918.09;5114234;28;20190;-56
2023/01/11 00:06:07;;;;;;;1.03;1.00;;;;;;;7.65;73.16;98920.69;5114599;28;20624;-55
2023/01/11 00:08:33;;;;;;;1.00;1.00;;;;;;;7.61;72.58;98920.59;5113785;28;21000;-55
2023/01/11 00:11:01;;;;;;;1.30;1.20;;;;;;;7.66;72.23;98936.91;5114559;28;20258;-54
2023/01/11 00:13:29;;;;;;;1.07;1.07;;;;;;;6.22;72.38;98691.47;5114450;28;20248;-55
2023/01/11 00:15:56;;;;;;;1.10;1.10;;;;;;;7.65;72.74;98932.59;5108071;28;20197;-55
2023/01/11 00:18:23;;;;;;;1.37;1.27;;;;;;;7.67;72.30;98934.34;5112571;28;20193;-55
2023/01/11 00:20:50;;;;;;;1.30;1.20;;;;;;;7.68;72.90;98946.31;5112685;28;20613;-56
2023/01/11 00:23:17;;;;;;;1.83;1.10;;;;;;;7.66;72.50;98940.28;5108577;28;20191;-55
2023/01/11 00:25:43;;;;;;;1.00;1.00;;;;;;;7.70;72.93;98948.88;5109739;28;20726;-55
2023/01/11 00:28:10;;;;;;;1.43;1.37;;;;;;;7.70;72.86;98962.53;5112745;28;20179;-55
2023/01/11 00:30:38;;;;;;;1.23;1.13;;;;;;;7.72;72.56;98948.06;5112541;28;20198;-55
2023/01/11 00:33:05;;;;;;;1.43;1.33;;;;;;;7.66;72.20;98954.78;5112392;28;20687;-55
2023/01/11 00:35:32;;;;;;;2.73;1.27;;;;;;;7.64;72.73;98961.53;5112679;28;20246;-55
2023/01/11 00:37:59;;;;;;;1.42;1.33;;;;;;;7.69;72.10;98960.81;5107881;28;20443;-55
2023/01/11 00:40:26;;;;;;;1.30;1.20;;;;;;;7.76;71.93;98963.47;5111726;28;20190;-55
2023/01/11 00:48:25;;;;;;;1.40;1.30;;;;;;;7.81;71.51;98969.53;5111529;28;20196;-55
2023/01/11 00:50:55;;;;;;;1.03;1.03;;;;;;;7.84;71.52;98961.91;5112447;28;20182;-56
2023/01/11 00:53:22;;;;;;;1.10;1.10;;;;;;;7.83;71.26;98965.34;5110391;28;20778;-55
2023/01/11 00:55:49;;;;;;;1.00;1.00;;;;;;;7.86;70.64;98968.78;5108109;28;20197;-55
2023/01/11 00:58:15;;;;;;;0.97;0.97;;;;;;;7.86;70.64;98973.91;5112988;28;20213;-55
2023/01/11 01:00:43;;;;;;;1.10;1.10;;;;;;;7.86;70.74;98965.34;5112892;28;20740;-55
2023/01/11 01:03:10;;;;;;;1.10;1.10;;;;;;;7.87;70.67;98972.22;5112868;28;20721;-55
2023/01/11 01:05:38;;;;;;;1.33;1.23;;;;;;;7.85;71.10;98969.63;5110931;28;20214;-55
2023/01/11 01:08:05;;;;;;;1.50;1.40;;;;;;;7.86;70.20;98973.91;5112027;28;20275;-57
2023/01/11 01:10:32;;;;;;;1.30;1.20;;;;;;;7.86;70.37;98970.47;5111727;28;20193;-56
2023/01/11 01:15:44;;;;;;;1.83;1.20;;;;;;;7.87;70.53;98969.66;5109772;28;20186;-56
2023/01/11 01:18:11;;;;;;;1.27;1.17;;;;;;;7.88;69.99;98971.38;5097137;28;20259;-56
2023/01/11 01:20:38;;;;;;;1.40;1.30;;;;;;;7.82;70.84;98973.81;5092936;28;20194;-56
2023/01/11 01:23:05;;;;;;;1.23;1.13;;;;;;;7.86;70.93;98970.47;5092891;28;20198;-55
2023/01/11 01:25:32;;;;;;;1.27;1.10;;;;;;;7.83;70.52;98963.59;5092768;28;20279;-55
2023/01/11 01:27:58;;;;;;;1.20;1.20;;;;;;;7.79;70.62;98969.53;5092609;28;20183;-55
2023/01/11 01:30:25;;;;;;;1.33;1.23;;;;;;;7.83;71.19;98980.69;5092759;28;20190;-55
2023/01/11 01:32:53;;;;;;;1.30;1.20;;;;;;;7.84;70.62;98972.16;5092630;28;20196;-54
2023/01/11 01:35:20;;;;;;;1.00;1.00;;;;;;;7.81;70.10;98967.84;5093105;28;20193;-55
2023/01/11 01:37:47;;;;;;;1.10;1.10;;;;;;;7.79;69.52;98971.22;5092648;28;20190;-55
2023/01/11 01:40:14;;;;;;;1.13;1.13;;;;;;;7.79;69.34;98968.66;5092498;28;20197;-55
2023/01/11 01:42:41;;;;;;;1.40;1.17;;;;;;;7.83;68.31;98967.91;5092256;28;20191;-55
2023/01/11 01:45:17;;;;;;;1.83;1.00;;;;;;;7.79;68.27;98964.41;5092595;28;20608;-55
2023/01/11 01:47:46;;;;;;;1.33;1.23;;;;;;;7.81;68.19;98961.88;5092507;28;20189;-55
2023/01/11 01:50:20;;;;;;;1.33;1.20;;;;;;;7.88;68.69;98973.94;5093056;28;20190;-55
2023/01/11 01:52:51;;;;;;;1.30;1.20;;;;;;;7.87;68.22;98967.97;5092629;28;20189;-55
2023/01/11 01:55:25;;;;;;;1.60;1.50;;;;;;;7.89;67.76;98973.09;5091946;28;20971;-55
2023/01/11 01:57:55;;;;;;;1.27;1.20;;;;;;;7.87;67.86;98972.22;5092530;28;20226;-55
2023/01/11 02:00:22;;;;;;;1.17;1.13;;;;;;;7.86;67.44;98973.03;5092357;28;20271;-55
2023/01/11 02:02:49;;;;;;;1.10;1.10;;;;;;;7.83;67.68;98967.91;5092778;28;20216;-54
2023/01/11 02:05:18;;;;;;;1.50;1.37;;;;;;;7.83;67.92;98981.50;5092030;28;20642;-54
2023/01/11 02:07:46;;;;;;;1.27;1.17;;;;;;;7.80;68.32;98965.28;5092257;28;20190;-55
2023/01/11 02:10:16;;;;;;;1.93;1.30;;;;;;;7.80;67.96;98970.38;5111459;28;20713;-55
2023/01/11 02:12:47;;;;;;;1.67;1.57;;;;;;;7.79;68.09;98976.31;5112469;28;20225;-55
2023/01/11 02:15:16;;;;;;;1.10;1.00;;;;;;;7.83;68.00;98973.84;5112333;28;20194;-55
2023/01/11 02:17:43;;;;;;;1.00;1.00;;;;;;;7.85;68.06;98984.97;5112356;28;20200;-55
2023/01/11 02:20:46;;;;;;;1.07;1.07;;;;;;;7.82;68.17;98982.38;5112363;28;20196;-55
2023/01/11 02:23:40;;;;;;;1.03;1.00;;;;;;;7.81;67.54;98997.66;5107228;28;20200;-55
2023/01/11 02:26:34;;;;;;;1.30;1.00;;;;;;;7.72;67.55;98996.66;5114852;28;20217;-55
2023/01/11 02:29:08;;;;;;;1.20;1.10;;;;;;;7.72;67.69;98996.66;5116590;28;20190;-55
2023/01/11 02:31:41;;;;;;;0.97;0.93;;;;;;;7.66;67.75;98988.84;5117067;28;20204;-55
2023/01/11 02:34:31;;;;;;;1.38;1.20;;;;;;;7.70;68.04;99000.03;5116200;28;20438;-55
2023/01/11 02:37:08;;;;;;;1.40;1.30;;;;;;;7.79;68.12;99002.75;5116563;28;20602;-55
2023/01/11 02:39:50;;;;;;;1.13;1.13;;;;;;;7.60;68.48;98973.44;5116371;28;20189;-55
2023/01/11 02:45:20;;;;;;;1.35;1.25;;;;;;;7.82;67.81;99000.28;5115117;28;20449;-55
2023/01/11 02:47:51;;;;;;;1.13;1.10;;;;;;;7.84;67.88;99008.81;5116345;28;20185;-55
2023/01/11 02:50:28;;;;;;;1.17;1.17;;;;;;;7.86;68.23;99012.25;5116115;28;20194;-56
2023/01/11 02:53:00;;;;;;;1.10;1.10;;;;;;;7.87;67.92;99001.22;5116585;28;20186;-55
2023/01/11 02:55:31;;;;;;;1.30;1.20;;;;;;;7.79;68.51;98999.34;5116011;28;20192;-55
2023/01/11 02:58:01;;;;;;;1.30;1.20;;;;;;;7.73;67.98;98998.38;5116023;28;20706;-55
2023/01/11 03:00:30;;;;;;;1.23;1.13;;;;;;;7.70;68.27;99007.69;5113425;28;20189;-55
2023/01/11 03:03:08;;;;;;;1.27;1.17;;;;;;;7.70;68.38;98998.34;5109186;28;20251;-55
2023/01/11 03:05:40;;;;;;;1.37;1.27;;;;;;;7.60;68.25;98981.09;5112033;28;20206;-55
2023/01/11 03:08:20;;;;;;;1.10;1.10;;;;;;;7.76;67.21;98996.72;5112309;28;20198;-54
2023/01/11 03:10:59;;;;;;;1.00;1.00;;;;;;;7.61;66.74;98967.47;5115925;28;20243;-54
2023/01/11 03:13:39;;;;;;;1.00;1.00;;;;;;;7.82;65.73;98991.72;5115673;28;20431;-54
2023/01/11 03:16:25;;;;;;;0.70;0.70;;;;;;;7.88;64.99;99005.50;5116104;28;20217;-54
2023/01/11 03:18:58;;;;;;;1.33;1.10;;;;;;;7.90;64.52;99001.28;5115564;28;20194;-55
2023/01/11 03:21:37;;;;;;;0.90;0.90;;;;;;;7.88;64.37;98990.16;5115595;28;20186;-55
2023/01/11 03:24:13;;;;;;;0.87;0.87;;;;;;;7.88;64.12;98994.41;5115365;28;20193;-55
2023/01/11 03:26:51;;;;;;;0.70;0.70;;;;;;;7.89;64.31;98993.56;5115275;28;20220;-55
2023/01/11 03:29:26;;;;;;;1.00;1.00;;;;;;;7.89;64.04;99006.34;5116149;28;20345;-55
2023/01/11 03:32:04;;;;;;;1.03;1.00;;;;;;;7.94;63.55;99004.75;5115353;28;20186;-55
2023/01/11 03:34:38;;;;;;;0.80;0.80;;;;;;;7.95;63.32;99007.31;5115868;28;20217;-55
2023/01/11 03:37:11;;;;;;;1.10;1.00;;;;;;;8.00;62.80;99003.16;5114479;28;20198;-55
2023/01/11 03:39:44;;;;;;;0.80;0.80;;;;;;;7.97;63.62;99012.47;5103282;28;20199;-55
2023/01/11 03:42:15;;;;;;;1.13;1.00;;;;;;;7.94;63.96;99007.31;5094833;28;20252;-55
2023/01/11 03:44:45;;;;;;;0.80;0.80;;;;;;;7.95;65.21;99009.88;5094622;28;20718;-55
2023/01/11 03:47:17;;;;;;;1.20;1.10;;;;;;;7.96;66.08;99011.63;5094833;28;20250;-55
2023/01/11 03:49:47;;;;;;;2.27;1.30;;;;;;;7.93;67.20;99015.81;5094826;28;20187;-54
2023/01/11 03:52:17;;;;;;;2.07;1.60;;;;;;;7.90;67.74;99021.72;5094565;28;20198;-54
2023/01/11 03:54:45;;;;;;;3.22;2.25;;;;;;;7.95;68.32;99026.91;5093588;28;20428;-55
2023/01/11 03:57:16;;;;;;;2.57;1.97;;;;;;;7.97;68.93;99038.03;5094016;28;20535;-54
2023/01/11 03:59:43;;;;;;;2.70;1.47;;;;;;;7.93;69.53;99041.38;5093942;28;20734;-54
2023/01/11 04:02:24;;;;;;;1.50;1.40;;;;;;;7.87;70.69;99046.38;5093949;28;20193;-55
2023/01/11 04:04:51;;;;;;;1.60;1.30;;;;;;;7.84;70.65;99046.31;5094772;28;20187;-55
2023/01/11 04:07:18;;;;;;;1.50;1.40;;;;;;;7.78;70.95;99053.84;5093910;28;20777;-55
2023/01/11 04:09:46;;;;;;;1.60;1.50;;;;;;;7.63;70.32;99031.41;5093862;28;20715;-56
2023/01/11 04:12:13;;;;;;;1.50;1.40;;;;;;;7.78;70.72;99062.41;5094151;28;20263;-55
2023/01/11 04:14:39;;;;;;;1.73;1.63;;;;;;;7.78;70.76;99069.19;5094359;28;20194;-55
2023/01/11 04:17:06;;;;;;;1.70;1.60;;;;;;;7.78;71.69;99071.75;5094175;28;20198;-55
2023/01/11 04:19:34;;;;;;;1.70;1.57;;;;;;;7.75;71.01;99072.56;5093656;28;20191;-54
2023/01/11 04:22:01;;;;;;;2.57;1.90;;;;;;;7.70;71.52;99066.50;5093486;28;20187;-55
2023/01/11 04:24:28;;;;;;;1.80;1.70;;;;;;;7.68;71.54;99074.16;5093736;28;20272;-55
2023/01/11 04:26:55;;;;;;;1.80;1.70;;;;;;;7.69;71.30;99070.75;5093869;28;20245;-55
2023/01/11 04:29:21;;;;;;;3.53;1.77;;;;;;;7.69;71.10;99062.22;5093700;28;20268;-55
2023/01/11 04:31:48;;;;;;;1.83;1.73;;;;;;;7.64;71.25;99077.47;5093879;28;20565;-55
2023/01/11 04:34:15;;;;;;;1.98;1.77;;;;;;;7.64;71.44;99074.91;5092693;28;20466;-54
2023/01/11 04:36:43;;;;;;;1.90;1.80;;;;;;;7.64;71.29;99076.59;5093200;28;20198;-55
2023/01/11 04:39:10;;;;;;;2.47;2.00;;;;;;;7.62;71.38;99079.13;5093470;28;20194;-56
2023/01/11 04:44:22;;;;;;;2.00;1.90;;;;;;;7.53;72.04;99095.94;5113775;28;20216;-55
2023/01/11 04:46:48;;;;;;;3.63;2.20;;;;;;;7.48;72.90;99093.31;5113553;28;20692;-55
2023/01/11 04:49:15;;;;;;;2.17;1.80;;;;;;;7.50;73.06;99095.88;5112421;28;20186;-56
2023/01/11 04:51:43;;;;;;;2.47;2.00;;;;;;;7.46;73.35;99102.63;5113399;28;20193;-55
2023/01/11 04:54:10;;;;;;;3.57;2.50;;;;;;;7.48;73.33;99108.63;5113660;28;20205;-55
2023/01/11 04:56:37;;;;;;;2.50;2.30;;;;;;;7.52;73.95;99107.88;5112952;28;20221;-56
2023/01/11 04:59:04;;;;;;;2.20;2.00;;;;;;;7.49;73.07;99105.25;5113344;28;20186;-55
2023/01/11 05:01:31;;;;;;;2.50;2.30;;;;;;;7.56;73.37;99116.47;5110344;28;20198;-55
2023/01/11 05:03:57;;;;;;;2.90;2.20;;;;;;;7.49;73.19;99102.72;5104551;28;20583;-55
2023/01/11 05:06:24;;;;;;;2.70;2.50;;;;;;;7.59;72.90;99109.72;5100299;28;20639;-54
2023/01/11 05:08:52;;;;;;;3.87;2.23;;;;;;;7.61;72.60;99120.84;5097979;28;20191;-55
2023/01/11 05:11:19;;;;;;;2.70;2.37;;;;;;;7.63;72.30;99119.22;5094731;28;20271;-55
2023/01/11 05:13:46;;;;;;;2.90;2.60;;;;;;;7.59;72.56;99117.41;5092638;28;20190;-56
2023/01/11 05:16:14;;;;;;;3.10;2.57;;;;;;;7.61;72.27;99119.97;5092665;28;20194;-55
2023/01/11 05:18:42;;;;;;;3.03;2.73;;;;;;;7.64;71.51;99120.06;5092478;28;20194;-55
2023/01/11 05:21:11;;;;;;;5.17;2.23;;;;;;;7.62;71.62;99116.59;5092345;28;20641;-55
2023/01/11 05:23:38;;;;;;;2.83;2.10;;;;;;;7.60;71.12;99108.03;5092666;28;20201;-55
2023/01/11 05:26:09;;;;;;;3.47;2.17;;;;;;;7.62;70.94;99129.38;5092509;28;20231;-56
2023/01/11 05:28:36;;;;;;;2.67;2.40;;;;;;;7.62;71.32;99120.03;5092417;28;20190;-55
2023/01/11 05:31:03;;;;;;;2.40;2.20;;;;;;;7.49;70.73;99112.06;5092471;28;20215;-55
2023/01/11 05:33:30;;;;;;;2.70;2.30;;;;;;;7.58;71.44;99128.44;5092363;28;20534;-55
2023/01/11 05:36:00;;;;;;;3.07;2.20;;;;;;;7.61;70.71;99131.06;5092149;28;20194;-55
2023/01/11 05:38:27;;;;;;;2.40;2.20;;;;;;;7.54;70.60;99133.47;5108215;28;20197;-54
2023/01/11 05:40:56;;;;;;;2.80;2.50;;;;;;;7.52;71.40;99124.91;5112590;28;20191;-55
2023/01/11 05:43:25;;;;;;;2.87;2.57;;;;;;;7.54;70.63;99124.13;5112605;28;20185;-55
2023/01/11 05:45:51;;;;;;;2.70;2.40;;;;;;;7.37;70.74;99099.00;5105585;28;20218;-55
2023/01/11 05:48:19;;;;;;;7.13;2.90;;;;;;;7.53;71.21;99136.84;5093945;28;20271;-55
2023/01/11 05:50:50;;;;;;;4.30;2.43;;;;;;;7.51;70.84;99143.63;5093865;28;20696;-56
2023/01/11 05:53:18;;;;;;;2.60;2.40;;;;;;;7.43;71.67;99146.00;5108729;28;20190;-55
2023/01/11 05:55:59;;;;;;;2.40;2.20;;;;;;;7.44;71.16;99152.00;5103381;28;20201;-55
2023/01/11 05:58:28;;;;;;;3.20;2.30;;;;;;;7.48;71.77;99162.31;5111874;28;20217;-56
2023/01/11 06:00:56;;;;;;;2.70;2.50;;;;;;;7.48;71.30;99156.31;5111934;28;20208;-54
2023/01/11 06:03:24;;;;;;;3.20;2.80;;;;;;;7.43;71.61;99157.91;5103342;28;20568;-56
2023/01/11 06:05:51;;;;;;;2.97;2.40;;;;;;;7.41;71.38;99164.69;5100631;28;20202;-55
2023/01/11 06:08:19;;;;;;;6.10;2.60;;;;;;;7.43;71.13;99168.16;5112337;28;20188;-55
2023/01/11 06:10:51;;;;;;;5.73;2.40;;;;;;;7.46;70.61;99169.09;5112334;28;20182;-55
2023/01/11 06:13:26;;;;;;;2.53;2.33;;;;;;;7.43;70.24;99176.69;5112017;28;20220;-55
2023/01/11 06:15:58;;;;;;;2.40;2.20;;;;;;;7.49;70.32;99176.81;5097558;28;20737;-55
2023/01/11 06:18:24;;;;;;;2.40;2.20;;;;;;;7.41;69.76;99168.13;5091931;28;21044;-55
2023/01/11 06:20:53;;;;;;;2.13;2.00;;;;;;;7.44;69.52;99175.88;5109803;28;20198;-55
2023/01/11 06:23:20;;;;;;;2.77;2.47;;;;;;;7.48;69.63;99180.19;5112068;28;20191;-55
2023/01/11 06:25:46;;;;;;;2.67;2.47;;;;;;;7.52;69.66;99176.91;5112773;28;20247;-56
2023/01/11 06:28:14;;;;;;;3.07;2.40;;;;;;;7.55;69.65;99183.78;5111793;28;20197;-55
2023/01/11 06:30:41;;;;;;;4.83;2.63;;;;;;;7.51;69.16;99190.50;5111753;28;20709;-55
2023/01/11 06:33:09;;;;;;;2.57;2.37;;;;;;;7.51;69.27;99192.19;5111894;28;20188;-54
2023/01/11 06:35:39;;;;;;;4.97;3.10;;;;;;;7.49;69.32;99186.19;5111888;28;20189;-55
2023/01/11 06:38:07;;;;;;;2.90;2.43;;;;;;;7.37;69.58;99176.53;5111677;28;20312;-54
2023/01/11 06:40:35;;;;;;;3.83;2.80;;;;;;;7.45;69.63;99192.03;5111524;28;20194;-54
2023/01/11 06:43:02;;;;;;;3.20;2.90;;;;;;;7.48;69.70;99189.56;5111589;28;20190;-56
2023/01/11 06:45:30;;;;;;;3.23;3.03;;;;;;;7.54;69.32;99199.94;5112103;28;20194;-56
2023/01/11 06:47:57;;;;;;;3.40;2.90;;;;;;;7.53;69.51;99195.63;5111685;28;20222;-56
2023/01/11 06:50:25;;;;;;;3.37;2.90;;;;;;;7.53;69.70;99199.06;5111868;28;20568;-56
2023/01/11 06:52:53;;;;;;;2.73;2.53;;;;;;;7.54;69.44;99200.81;5111604;28;20222;-56
2023/01/11 06:55:20;;;;;;;2.83;2.63;;;;;;;7.55;70.16;99214.44;5109576;28;20190;-56
2023/01/11 06:57:47;;;;;;;2.90;2.60;;;;;;;7.38;69.98;99192.72;5099627;28;20225;-56
2023/01/11 07:00:15;;;;;;;3.23;2.70;;;;;;;7.59;70.07;99226.47;5111398;28;20190;-56
2023/01/11 07:02:41;;;;;;;3.93;3.03;;;;;;;7.55;70.42;99227.22;5109794;28;20205;-56
2023/01/11 07:05:09;;;;;;;3.40;3.10;;;;;;;7.48;70.10;99225.34;5111090;28;20193;-55
2023/01/11 07:07:37;;;;;;;2.83;2.50;;;;;;;7.59;70.35;99235.00;5105563;28;20214;-57
2023/01/11 07:10:06;;;;;;;4.57;3.30;;;;;;;7.67;70.00;99237.72;5108986;28;20205;-56
2023/01/11 07:12:33;;;;;;;3.30;3.00;;;;;;;7.65;69.76;99244.50;5112574;28;20565;-56
2023/01/11 07:15:01;;;;;;;3.10;2.70;;;;;;;7.66;70.17;99246.25;5115938;28;20551;-55
2023/01/11 07:17:27;;;;;;;3.47;3.10;;;;;;;7.63;69.80;99247.03;5117694;28;20194;-55
2023/01/11 07:19:54;;;;;;;4.97;2.80;;;;;;;7.66;69.00;99252.19;5115044;28;20189;-56
2023/01/11 07:22:22;;;;;;;3.57;2.87;;;;;;;7.66;68.46;99247.09;5114893;28;20192;-56
2023/01/11 07:24:51;;;;;;;3.87;3.00;;;;;;;7.59;68.12;99227.34;5115089;28;20214;-56
2023/01/11 07:27:18;;;;;;;4.07;3.67;;;;;;;7.71;68.70;99252.31;5106633;28;20312;-56
2023/01/11 07:29:45;;;;;;;5.73;3.93;;;;;;;7.69;68.91;99244.59;5114770;28;20190;-54
2023/01/11 07:32:12;;;;;;;6.23;4.20;;;;;;;7.75;69.31;99259.22;5115261;28;20195;-56
2023/01/11 07:34:39;;;;;;;4.37;3.40;;;;;;;7.77;68.24;99255.03;5114728;28;20192;-56
2023/01/11 07:37:08;;;;;;;4.70;3.93;;;;;;;7.89;68.57;99265.53;5115171;28;20614;-56
2023/01/11 07:39:35;;;;;;;6.70;3.30;;;;;;;8.03;67.80;99276.06;5114660;28;20669;-56
2023/01/11 07:44:48;;;;;;;4.50;3.23;;;;;;;8.24;66.21;99281.69;5114804;28;20193;-56
2023/01/11 07:47:15;;;;;;;3.27;2.73;;;;;;;8.32;65.93;99294.69;5113814;28;20224;-56
2023/01/11 07:49:41;;;;;;;4.17;3.63;;;;;;;8.39;65.74;99299.97;5102238;28;20194;-56
2023/01/11 07:52:08;;;;;;;5.30;3.60;;;;;;;8.50;65.92;99300.19;5102622;28;20202;-57
2023/01/11 07:54:35;;;;;;;4.10;3.40;;;;;;;8.59;65.62;99301.25;5097514;28;20190;-56
2023/01/11 07:57:03;;;;;;;6.07;4.00;;;;;;;8.67;65.39;99303.97;5111061;28;20718;-56
2023/01/11 07:59:30;;;;;;;4.57;3.60;;;;;;;8.75;65.22;99305.84;5113751;28;20717;-56
2023/01/11 08:01:57;;;;;;;6.03;3.70;;;;;;;8.86;65.14;99308.63;5113776;28;20257;-55
2023/01/11 08:04:23;;;;;;;4.37;3.80;;;;;;;8.89;65.07;99303.56;5114289;28;20189;-55
2023/01/11 08:06:50;;;;;;;3.33;3.03;;;;;;;8.98;65.11;99306.31;5114334;28;20221;-56
2023/01/11 08:09:17;;;;;;;3.43;3.13;;;;;;;9.05;65.01;99305.59;5114188;28;20186;-56
2023/01/11 08:14:41;;;;;;;4.23;3.83;;;;;;;9.08;64.61;99310.78;5114191;28;20220;-57
2023/01/11 08:17:09;;;;;;;3.93;3.20;;;;;;;8.82;64.54;99294.88;5114153;28;20223;-56
2023/01/11 08:19:36;;;;;;;3.67;3.20;;;;;;;9.02;64.60;99314.91;5114020;28;20186;-56
2023/01/11 08:22:02;;;;;;;3.57;3.27;;;;;;;9.06;63.73;99314.16;5111625;28;20679;-58
2023/01/11 08:24:29;;;;;;;4.73;2.57;;;;;;;9.01;62.98;99314.03;5101605;28;20258;-56
2023/01/11 08:26:58;;;;;;;2.60;2.40;;;;;;;9.09;62.39;99316.78;5113621;28;20805;-55
2023/01/11 08:29:25;;;;;;;4.10;2.43;;;;;;;9.12;62.21;99319.41;5105794;28;20621;-56
2023/01/11 08:31:53;;;;;;;2.33;2.10;;;;;;;9.06;62.12;99326.97;5093464;28;20195;-56
2023/01/11 08:34:20;;;;;;;3.33;2.67;;;;;;;9.04;62.90;99338.88;5093557;28;20187;-56
2023/01/11 08:36:47;;;;;;;2.93;2.33;;;;;;;8.93;62.08;99337.81;5093260;28;20230;-56
2023/01/11 08:39:13;;;;;;;6.53;2.57;;;;;;;8.90;62.20;99342.00;5100313;28;20190;-57
2023/01/11 08:41:40;;;;;;;2.57;2.10;;;;;;;8.94;61.96;99348.06;5110223;28;20202;-58
2023/01/11 08:44:08;;;;;;;2.63;2.23;;;;;;;8.80;61.99;99337.53;5106230;28;20675;-55
2023/01/11 08:46:36;;;;;;;2.43;2.23;;;;;;;8.89;62.29;99353.13;5109163;28;20190;-57
2023/01/11 08:49:10;;;;;;;2.20;2.00;;;;;;;8.98;61.96;99359.25;5112334;28;20303;-56
2023/01/11 08:51:38;;;;;;;3.67;2.77;;;;;;;9.07;62.23;99361.97;5113248;28;20197;-56
2023/01/11 08:54:06;;;;;;;2.37;2.17;;;;;;;9.14;61.48;99364.72;5113042;28;20668;-55
2023/01/11 08:56:33;;;;;;;2.60;2.30;;;;;;;9.19;60.24;99359.66;5105337;28;20221;-56
2023/01/11 08:59:01;;;;;;;2.30;2.10;;;;;;;9.31;60.13;99362.47;5098522;28;20194;-57
2023/01/11 09:01:28;;;;;;;3.77;3.17;;;;;;;9.45;59.84;99366.13;5107890;28;20702;-57
2023/01/11 09:03:55;;;;;;;2.70;2.50;;;;;;;9.58;59.41;99369.81;5112551;28;20197;-56
2023/01/11 09:06:23;;;;;;;3.53;2.83;;;;;;;9.67;59.40;99360.56;5108751;28;20201;-56
2023/01/11 09:08:50;;;;;;;3.87;2.60;;;;;;;9.72;59.54;99361.53;5109250;28;20228;-56
2023/01/11 09:14:01;;;;;;;4.93;3.70;;;;;;;9.91;59.89;99365.28;5110941;28;20271;-56
2023/01/11 09:16:28;;;;;;;4.10;3.17;;;;;;;9.97;59.51;99366.22;5112201;28;20647;-57
2023/01/11 09:18:55;;;;;;;6.10;3.40;;;;;;;10.00;59.79;99363.69;5112245;28;20572;-57
2023/01/11 09:21:23;;;;;;;5.03;3.90;;;;;;;9.90;59.61;99366.09;5112119;28;20178;-56
2023/01/11 09:23:50;;;;;;;4.23;3.23;;;;;;;9.83;59.51;99357.41;5111708;28;20189;-56
2023/01/11 09:26:17;;;;;;;5.03;3.23;;;;;;;9.95;58.87;99352.50;5112064;28;20193;-55
2023/01/11 09:28:44;;;;;;;5.20;3.50;;;;;;;10.11;58.11;99347.63;5111836;28;20226;-56
2023/01/11 09:31:11;;;;;;;4.43;3.53;;;;;;;10.07;58.24;99346.72;5112089;28;20243;-57
2023/01/11 09:33:38;;;;;;;4.93;3.00;;;;;;;10.19;58.42;99344.34;5105958;28;20568;-57
2023/01/11 09:36:06;;;;;;;4.53;3.13;;;;;;;10.18;57.64;99328.94;5107182;28;20653;-56
2023/01/11 09:38:35;;;;;;;2.90;2.60;;;;;;;10.23;56.84;99346.13;5108652;28;20187;-57
2023/01/11 09:41:11;;;;;;;3.37;2.63;;;;;;;10.24;56.84;99347.00;5112089;28;20186;-57
2023/01/11 09:43:45;;;;;;;5.87;3.07;;;;;;;10.21;55.46;99350.38;5110159;28;20276;-57
2023/01/11 09:46:13;;;;;;;3.57;2.80;;;;;;;10.32;55.89;99345.41;5111994;28;20178;-56
2023/01/11 09:48:46;;;;;;;5.23;2.43;;;;;;;10.49;55.00;99357.63;5112008;28;20206;-57
2023/01/11 09:51:15;;;;;;;3.87;2.10;;;;;;;10.55;54.48;99365.44;5109219;28;20182;-57
2023/01/11 09:53:49;;;;;;;2.40;2.20;;;;;;;10.60;55.10;99355.25;5109237;28;20277;-57
2023/01/11 09:56:23;;;;;;;3.87;2.93;;;;;;;10.68;54.90;99367.31;5109315;28;20192;-57
2023/01/11 09:58:59;;;;;;;3.07;2.77;;;;;;;10.62;54.17;99353.53;5111397;28;20189;-57
2023/01/11 10:01:34;;;;;;;3.40;2.70;;;;;;;10.50;55.30;99377.34;5108741;28;20256;-57
2023/01/11 10:04:39;;;;;;;2.77;2.50;;;;;;;10.62;55.19;99374.97;5110116;28;20182;-57
2023/01/11 10:07:21;;;;;;;3.93;3.10;;;;;;;10.54;55.14;99376.56;5096090;28;20284;-56
2023/01/11 10:10:06;;;;;;;5.18;3.17;;;;;;;10.51;55.16;99368.81;5110418;28;20450;-56
2023/01/11 10:12:42;;;;;;;5.20;3.50;;;;;;;10.67;55.18;99367.31;5109039;28;20561;-57
2023/01/11 10:15:18;;;;;;;3.17;2.83;;;;;;;10.68;54.39;99366.47;5112047;28;20185;-56
2023/01/11 10:17:55;;;;;;;3.50;3.00;;;;;;;10.62;54.90;99361.25;5118894;28;20245;-59
2023/01/11 10:20:27;;;;;;;5.20;3.00;;;;;;;10.66;55.24;99365.56;5113554;28;20699;-55
2023/01/11 10:23:03;;;;;;;3.87;2.80;;;;;;;10.55;55.62;99365.44;5107324;28;20209;-56
2023/01/11 10:25:40;;;;;;;3.43;3.10;;;;;;;10.68;55.16;99369.06;5110812;28;20181;-57
2023/01/11 10:28:12;;;;;;;3.50;3.07;;;;;;;10.49;56.42;99364.50;5111245;28;20300;-57
2023/01/11 10:31:05;;;;;;;4.53;3.10;;;;;;;10.63;56.14;99365.53;5112416;28;20663;-57
2023/01/11 10:33:56;;;;;;;5.20;3.17;;;;;;;10.63;56.34;99360.38;5111249;28;20218;-57
2023/01/11 10:36:50;;;;;;;5.63;3.23;;;;;;;10.75;55.75;99365.72;5110132;28;20190;-56
2023/01/11 10:39:45;;;;;;;3.23;2.93;;;;;;;10.85;55.05;99354.69;5111756;28;20191;-56
2023/01/11 10:42:20;;;;;;;5.75;3.78;;;;;;;11.09;54.66;99355.03;5111492;28;20473;-56
2023/01/11 10:44:58;;;;;;;5.10;3.80;;;;;;;11.31;53.79;99371.56;5111773;28;20222;-57
2023/01/11 10:47:29;;;;;;;4.97;3.87;;;;;;;11.30;53.06;99367.25;5111641;28;20337;-57
2023/01/11 10:50:02;;;;;;;3.03;2.80;;;;;;;10.88;52.65;99338.44;5110363;28;20201;-57
2023/01/11 10:52:35;;;;;;;3.60;3.27;;;;;;;11.15;53.12;99360.22;5115238;28;20303;-57
2023/01/11 10:55:12;;;;;;;4.37;2.83;;;;;;;11.36;52.64;99367.31;5115711;28;20193;-56
2023/01/11 10:57:54;;;;;;;2.90;2.63;;;;;;;11.33;51.89;99356.13;5115462;28;20233;-57
2023/01/11 11:00:30;;;;;;;3.23;2.80;;;;;;;11.35;52.19;99359.56;5115465;28;20224;-57
2023/01/11 11:03:14;;;;;;;5.17;2.90;;;;;;;11.21;53.16;99355.16;5115438;28;20185;-56
2023/01/11 11:05:47;;;;;;;4.10;3.70;;;;;;;11.18;53.85;99355.09;5115255;28;20285;-57
2023/01/11 11:08:25;;;;;;;3.40;3.07;;;;;;;11.19;53.78;99348.25;5108564;28;20213;-56
2023/01/11 11:10:59;;;;;;;4.17;3.77;;;;;;;11.20;53.98;99355.13;5105136;28;20187;-57
2023/01/11 11:13:41;;;;;;;3.47;3.17;;;;;;;11.14;54.33;99355.94;5104767;28;20188;-56
2023/01/11 11:16:24;;;;;;;3.60;3.30;;;;;;;11.10;54.02;99355.84;5114025;28;20537;-58
2023/01/11 11:18:54;;;;;;;4.57;3.80;;;;;;;10.86;53.65;99294.75;5114140;28;20442;-56
2023/01/11 11:21:27;;;;;;;5.27;3.33;;;;;;;11.14;53.58;99348.22;5115223;28;20197;-56
2023/01/11 11:23:59;;;;;;;4.80;3.47;;;;;;;11.17;53.62;99342.25;5107716;28;20206;-58
2023/01/11 11:26:36;;;;;;;3.70;3.10;;;;;;;11.15;53.67;99352.50;5106344;28;20190;-57
2023/01/11 11:29:06;;;;;;;3.13;2.80;;;;;;;11.17;52.93;99345.69;5114791;28;20676;-56
2023/01/11 11:31:36;;;;;;;4.07;3.37;;;;;;;11.11;53.56;99350.75;5114838;28;20193;-57
2023/01/11 11:34:08;;;;;;;4.13;3.47;;;;;;;11.14;54.16;99348.22;5110686;28;20621;-57
2023/01/11 11:36:42;;;;;;;3.23;2.93;;;;;;;11.11;54.12;99349.88;5111874;28;20232;-58
2023/01/11 11:39:11;;;;;;;3.73;3.37;;;;;;;11.13;54.18;99350.75;5112133;28;20376;-57
2023/01/11 11:41:49;;;;;;;3.63;3.10;;;;;;;11.23;53.74;99350.88;5114093;28;20270;-57
2023/01/11 11:44:20;;;;;;;4.47;3.47;;;;;;;11.39;53.87;99348.47;5112762;28;20186;-57
2023/01/11 11:46:57;;;;;;;6.27;4.30;;;;;;;11.15;53.84;99349.09;5111691;28;20179;-57
2023/01/11 11:49:24;;;;;;;5.43;3.43;;;;;;;11.23;53.90;99345.72;5113567;28;20688;-57
2023/01/11 11:51:52;;;;;;;6.43;4.07;;;;;;;11.40;53.41;99350.22;5108116;28;20187;-58
2023/01/11 11:54:24;;;;;;;4.03;3.00;;;;;;;11.51;52.51;99348.63;5111193;28;20665;-57
2023/01/11 11:56:51;;;;;;;3.13;2.87;;;;;;;11.59;52.04;99354.72;5116596;27;20220;-57
2023/01/11 11:59:21;;;;;;;3.60;3.17;;;;;;;11.56;51.97;99360.69;5115285;27;20182;-57
2023/01/11 12:01:54;;;;;;;3.37;3.07;;;;;;;11.65;51.97;99354.75;5120070;27;20186;-57
2023/01/11 12:04:23;;;;;;;3.90;3.50;;;;;;;11.72;51.45;99351.44;5122982;27;20204;-56
2023/01/11 12:07:05;;;;;;;4.53;3.30;;;;;;;11.61;51.97;99347.84;5120810;27;20182;-56
2023/01/11 12:09:34;;;;;;;3.80;3.50;;;;;;;11.57;52.85;99356.38;5120054;27;20217;-58
2023/01/11 12:12:02;;;;;;;3.60;3.30;;;;;;;11.61;52.91;99353.00;5124501;27;20650;-57
2023/01/11 12:14:34;;;;;;;3.33;3.07;;;;;;;11.56;52.95;99352.09;5120008;27;20186;-57
2023/01/11 12:17:21;;;;;;;4.73;3.67;;;;;;;11.50;53.41;99345.19;5120174;27;20201;-57